sensor_id;sensor_type;location;lat;lon;timestamp;P1;durP1;ratioP1;P2;durP2;ratioP2
51184;SDS011;37248;59.350;18.050;2023-02-13T00:01:49;2.40;;;1.10;;
51184;SDS011;37248;59.350;18.050;2023-02-13T00:04:15;3.58;;;1.10;;
51184;SDS011;37248;59.350;18.050;2023-02-13T00:06:43;1.40;;;0.80;;
51184;SDS011;37248;59.350;18.050;2023-02-13T00:09:08;4.03;;;1.10;;
51184;SDS011;37248;59.350;18.050;2023-02-13T00:11:35;2.13;;;0.90;;
51184;SDS011;37248;59.350;18.050;2023-02-13T00:14:00;4.93;;;1.03;;
51184;SDS011;37248;59.350;18.050;2023-02-13T00:16:25;3.03;;;0.87;;
51184;SDS011;37248;59.350;18.050;2023-02-13T00:18:51;5.47;;;1.27;;
51184;SDS011;37248;59.350;18.050;2023-02-13T00:21:16;6.37;;;1.40;;
51184;SDS011;37248;59.350;18.050;2023-02-13T00:23:41;3.23;;;1.10;;
51184;SDS011;37248;59.350;18.050;2023-02-13T00:26:11;13.33;;;1.20;;
51184;SDS011;37248;59.350;18.050;2023-02-13T00:28:37;3.05;;;1.10;;
51184;SDS011;37248;59.350;18.050;2023-02-13T00:31:06;3.85;;;1.10;;
51184;SDS011;37248;59.350;18.050;2023-02-13T00:33:32;1.83;;;0.88;;
51184;SDS011;37248;59.350;18.050;2023-02-13T00:36:01;3.70;;;1.27;;
51184;SDS011;37248;59.350;18.050;2023-02-13T00:38:28;3.90;;;1.10;;
51184;SDS011;37248;59.350;18.050;2023-02-13T00:40:53;1.92;;;0.90;;
51184;SDS011;37248;59.350;18.050;2023-02-13T00:43:18;3.33;;;0.80;;
51184;SDS011;37248;59.350;18.050;2023-02-13T00:45:43;7.00;;;1.10;;
51184;SDS011;37248;59.350;18.050;2023-02-13T00:48:09;2.10;;;0.80;;
51184;SDS011;37248;59.350;18.050;2023-02-13T00:50:34;2.30;;;0.90;;
51184;SDS011;37248;59.350;18.050;2023-02-13T00:52:59;3.60;;;0.83;;
51184;SDS011;37248;59.350;18.050;2023-02-13T00:55:24;2.00;;;0.90;;
51184;SDS011;37248;59.350;18.050;2023-02-13T00:57:50;2.43;;;0.90;;
51184;SDS011;37248;59.350;18.050;2023-02-13T01:00:15;2.45;;;0.90;;
51184;SDS011;37248;59.350;18.050;2023-02-13T01:02:40;3.87;;;0.90;;
51184;SDS011;37248;59.350;18.050;2023-02-13T01:05:06;6.53;;;1.17;;
51184;SDS011;37248;59.350;18.050;2023-02-13T01:07:31;4.40;;;1.07;;
51184;SDS011;37248;59.350;18.050;2023-02-13T01:09:56;3.63;;;0.80;;
51184;SDS011;37248;59.350;18.050;2023-02-13T01:12:22;3.33;;;0.90;;
51184;SDS011;37248;59.350;18.050;2023-02-13T01:14:47;3.40;;;0.70;;
51184;SDS011;37248;59.350;18.050;2023-02-13T01:17:12;3.20;;;0.83;;
51184;SDS011;37248;59.350;18.050;2023-02-13T01:19:39;6.90;;;0.80;;
51184;SDS011;37248;59.350;18.050;2023-02-13T01:22:04;2.70;;;0.73;;
51184;SDS011;37248;59.350;18.050;2023-02-13T01:24:32;3.60;;;0.70;;
51184;SDS011;37248;59.350;18.050;2023-02-13T01:26:58;5.60;;;0.97;;
51184;SDS011;37248;59.350;18.050;2023-02-13T01:29:23;1.20;;;0.60;;
51184;SDS011;37248;59.350;18.050;2023-02-13T01:31:48;2.30;;;0.80;;
51184;SDS011;37248;59.350;18.050;2023-02-13T01:34:14;2.05;;;0.88;;
51184;SDS011;37248;59.350;18.050;2023-02-13T01:36:39;5.63;;;1.10;;
51184;SDS011;37248;59.350;18.050;2023-02-13T01:39:04;3.40;;;0.70;;
51184;SDS011;37248;59.350;18.050;2023-02-13T01:41:29;2.83;;;0.80;;
51184;SDS011;37248;59.350;18.050;2023-02-13T01:43:56;2.22;;;0.90;;
51184;SDS011;37248;59.350;18.050;2023-02-13T01:48:50;4.88;;;0.70;;
51184;SDS011;37248;59.350;18.050;2023-02-13T01:51:19;3.97;;;0.77;;
51184;SDS011;37248;59.350;18.050;2023-02-13T01:53:47;2.55;;;0.63;;
51184;SDS011;37248;59.350;18.050;2023-02-13T01:56:15;1.47;;;0.70;;
51184;SDS011;37248;59.350;18.050;2023-02-13T01:58:42;5.40;;;0.95;;
51184;SDS011;37248;59.350;18.050;2023-02-13T02:01:08;4.13;;;1.02;;
51184;SDS011;37248;59.350;18.050;2023-02-13T02:03:35;7.60;;;1.27;;
51184;SDS011;37248;59.350;18.050;2023-02-13T02:06:01;4.53;;;0.80;;
51184;SDS011;37248;59.350;18.050;2023-02-13T02:08:27;8.90;;;0.90;;
51184;SDS011;37248;59.350;18.050;2023-02-13T02:10:54;2.83;;;0.80;;
51184;SDS011;37248;59.350;18.050;2023-02-13T02:13:20;4.50;;;0.90;;
51184;SDS011;37248;59.350;18.050;2023-02-13T02:15:46;2.78;;;0.70;;
51184;SDS011;37248;59.350;18.050;2023-02-13T02:18:16;6.30;;;0.85;;
51184;SDS011;37248;59.350;18.050;2023-02-13T02:49:43;3.47;;;0.70;;
51184;SDS011;37248;59.350;18.050;2023-02-13T02:52:39;2.20;;;0.57;;
51184;SDS011;37248;59.350;18.050;2023-02-13T02:55:09;2.53;;;0.70;;
51184;SDS011;37248;59.350;18.050;2023-02-13T02:57:41;2.45;;;0.63;;
51184;SDS011;37248;59.350;18.050;2023-02-13T03:00:26;2.13;;;0.63;;
51184;SDS011;37248;59.350;18.050;2023-02-13T03:03:14;6.10;;;0.98;;
51184;SDS011;37248;59.350;18.050;2023-02-13T03:06:18;5.50;;;0.80;;
51184;SDS011;37248;59.350;18.050;2023-02-13T03:08:50;4.13;;;0.90;;
51184;SDS011;37248;59.350;18.050;2023-02-13T03:11:35;2.50;;;0.60;;
51184;SDS011;37248;59.350;18.050;2023-02-13T03:14:20;2.75;;;0.60;;
51184;SDS011;37248;59.350;18.050;2023-02-13T03:16:46;2.80;;;0.60;;
51184;SDS011;37248;59.350;18.050;2023-02-13T03:19:34;3.75;;;0.68;;
51184;SDS011;37248;59.350;18.050;2023-02-13T03:25:31;1.75;;;0.50;;
51184;SDS011;37248;59.350;18.050;2023-02-13T03:32:56;2.50;;;0.60;;
51184;SDS011;37248;59.350;18.050;2023-02-13T03:38:19;1.60;;;0.50;;
51184;SDS011;37248;59.350;18.050;2023-02-13T03:40:48;1.42;;;0.50;;
51184;SDS011;37248;59.350;18.050;2023-02-13T03:43:36;2.58;;;0.57;;
51184;SDS011;37248;59.350;18.050;2023-02-13T03:46:03;3.03;;;0.50;;
51184;SDS011;37248;59.350;18.050;2023-02-13T03:48:30;3.10;;;0.60;;
51184;SDS011;37248;59.350;18.050;2023-02-13T03:51:21;1.58;;;0.63;;
51184;SDS011;37248;59.350;18.050;2023-02-13T03:53:48;5.93;;;0.80;;
51184;SDS011;37248;59.350;18.050;2023-02-13T03:56:15;1.88;;;0.50;;
51184;SDS011;37248;59.350;18.050;2023-02-13T03:59:01;1.88;;;0.55;;
51184;SDS011;37248;59.350;18.050;2023-02-13T04:01:42;1.92;;;0.40;;
51184;SDS011;37248;59.350;18.050;2023-02-13T04:06:42;3.27;;;0.63;;
51184;SDS011;37248;59.350;18.050;2023-02-13T04:09:11;6.50;;;0.70;;
51184;SDS011;37248;59.350;18.050;2023-02-13T04:11:38;4.30;;;0.63;;
51184;SDS011;37248;59.350;18.050;2023-02-13T04:14:10;1.30;;;0.40;;
51184;SDS011;37248;59.350;18.050;2023-02-13T04:16:38;2.50;;;0.60;;
51184;SDS011;37248;59.350;18.050;2023-02-13T04:19:05;1.98;;;0.70;;
51184;SDS011;37248;59.350;18.050;2023-02-13T04:21:32;2.78;;;0.52;;
51184;SDS011;37248;59.350;18.050;2023-02-13T04:23:58;3.03;;;0.53;;
51184;SDS011;37248;59.350;18.050;2023-02-13T04:26:23;4.30;;;0.80;;
51184;SDS011;37248;59.350;18.050;2023-02-13T04:28:49;4.27;;;0.50;;
51184;SDS011;37248;59.350;18.050;2023-02-13T04:31:14;3.17;;;0.67;;
51184;SDS011;37248;59.350;18.050;2023-02-13T04:33:40;3.10;;;0.50;;
51184;SDS011;37248;59.350;18.050;2023-02-13T04:36:05;1.97;;;0.60;;
51184;SDS011;37248;59.350;18.050;2023-02-13T04:38:30;7.60;;;0.50;;
51184;SDS011;37248;59.350;18.050;2023-02-13T04:40:56;4.17;;;0.57;;
51184;SDS011;37248;59.350;18.050;2023-02-13T04:43:21;4.47;;;0.70;;
51184;SDS011;37248;59.350;18.050;2023-02-13T04:45:47;8.00;;;0.95;;
51184;SDS011;37248;59.350;18.050;2023-02-13T04:48:13;4.30;;;0.50;;
51184;SDS011;37248;59.350;18.050;2023-02-13T04:50:38;3.70;;;0.50;;
51184;SDS011;37248;59.350;18.050;2023-02-13T04:53:03;3.97;;;0.60;;
51184;SDS011;37248;59.350;18.050;2023-02-13T04:55:29;3.90;;;0.50;;
51184;SDS011;37248;59.350;18.050;2023-02-13T04:57:54;4.03;;;0.73;;
51184;SDS011;37248;59.350;18.050;2023-02-13T05:00:20;5.80;;;0.90;;
51184;SDS011;37248;59.350;18.050;2023-02-13T05:02:45;6.00;;;0.63;;
51184;SDS011;37248;59.350;18.050;2023-02-13T05:05:10;2.33;;;0.50;;
51184;SDS011;37248;59.350;18.050;2023-02-13T05:07:35;2.20;;;0.50;;
51184;SDS011;37248;59.350;18.050;2023-02-13T05:10:01;3.40;;;0.53;;
51184;SDS011;37248;59.350;18.050;2023-02-13T05:12:26;9.00;;;0.57;;
51184;SDS011;37248;59.350;18.050;2023-02-13T05:14:52;1.77;;;0.60;;
51184;SDS011;37248;59.350;18.050;2023-02-13T05:17:17;2.90;;;0.70;;
51184;SDS011;37248;59.350;18.050;2023-02-13T05:19:42;3.97;;;1.00;;
51184;SDS011;37248;59.350;18.050;2023-02-13T05:22:08;6.43;;;0.63;;
51184;SDS011;37248;59.350;18.050;2023-02-13T05:24:52;6.63;;;0.52;;
51184;SDS011;37248;59.350;18.050;2023-02-13T05:27:17;10.93;;;0.60;;
51184;SDS011;37248;59.350;18.050;2023-02-13T05:29:43;2.27;;;0.57;;
51184;SDS011;37248;59.350;18.050;2023-02-13T05:32:08;3.55;;;0.47;;
51184;SDS011;37248;59.350;18.050;2023-02-13T05:34:33;2.17;;;0.53;;
51184;SDS011;37248;59.350;18.050;2023-02-13T05:36:59;3.13;;;0.50;;
51184;SDS011;37248;59.350;18.050;2023-02-13T05:39:24;3.10;;;0.70;;
51184;SDS011;37248;59.350;18.050;2023-02-13T05:41:49;4.00;;;0.57;;
51184;SDS011;37248;59.350;18.050;2023-02-13T05:44:15;4.63;;;0.60;;
51184;SDS011;37248;59.350;18.050;2023-02-13T05:46:41;4.20;;;0.67;;
51184;SDS011;37248;59.350;18.050;2023-02-13T05:49:08;3.03;;;0.80;;
51184;SDS011;37248;59.350;18.050;2023-02-13T05:51:33;4.13;;;0.50;;
51184;SDS011;37248;59.350;18.050;2023-02-13T05:53:58;6.10;;;0.70;;
51184;SDS011;37248;59.350;18.050;2023-02-13T05:56:24;2.97;;;0.50;;
51184;SDS011;37248;59.350;18.050;2023-02-13T05:58:52;4.23;;;0.50;;
51184;SDS011;37248;59.350;18.050;2023-02-13T06:01:18;3.38;;;0.57;;
51184;SDS011;37248;59.350;18.050;2023-02-13T06:03:43;7.23;;;0.70;;
51184;SDS011;37248;59.350;18.050;2023-02-13T06:06:09;3.90;;;0.60;;
51184;SDS011;37248;59.350;18.050;2023-02-13T06:08:34;6.67;;;0.47;;
51184;SDS011;37248;59.350;18.050;2023-02-13T06:11:00;3.07;;;0.60;;
51184;SDS011;37248;59.350;18.050;2023-02-13T06:13:25;6.50;;;1.03;;
51184;SDS011;37248;59.350;18.050;2023-02-13T06:15:50;1.90;;;0.60;;
51184;SDS011;37248;59.350;18.050;2023-02-13T06:18:15;3.73;;;0.73;;
51184;SDS011;37248;59.350;18.050;2023-02-13T06:20:41;1.90;;;0.43;;
51184;SDS011;37248;59.350;18.050;2023-02-13T06:23:06;2.27;;;0.50;;
51184;SDS011;37248;59.350;18.050;2023-02-13T06:25:33;2.80;;;0.50;;
51184;SDS011;37248;59.350;18.050;2023-02-13T06:27:58;3.45;;;0.50;;
51184;SDS011;37248;59.350;18.050;2023-02-13T06:30:23;4.47;;;0.60;;
51184;SDS011;37248;59.350;18.050;2023-02-13T06:32:48;1.10;;;0.30;;
51184;SDS011;37248;59.350;18.050;2023-02-13T06:35:14;1.47;;;0.60;;
51184;SDS011;37248;59.350;18.050;2023-02-13T06:37:39;5.47;;;0.73;;
51184;SDS011;37248;59.350;18.050;2023-02-13T06:40:05;3.40;;;0.70;;
51184;SDS011;37248;59.350;18.050;2023-02-13T06:42:31;2.10;;;0.63;;
51184;SDS011;37248;59.350;18.050;2023-02-13T06:44:56;4.63;;;0.70;;
51184;SDS011;37248;59.350;18.050;2023-02-13T06:47:22;4.03;;;0.70;;
51184;SDS011;37248;59.350;18.050;2023-02-13T06:49:47;2.50;;;0.55;;
51184;SDS011;37248;59.350;18.050;2023-02-13T06:52:12;2.57;;;0.80;;
51184;SDS011;37248;59.350;18.050;2023-02-13T06:54:37;5.50;;;0.60;;
51184;SDS011;37248;59.350;18.050;2023-02-13T06:57:03;3.83;;;0.60;;
51184;SDS011;37248;59.350;18.050;2023-02-13T06:59:28;3.28;;;0.80;;
51184;SDS011;37248;59.350;18.050;2023-02-13T07:01:53;4.73;;;0.63;;
51184;SDS011;37248;59.350;18.050;2023-02-13T07:04:19;11.10;;;1.43;;
51184;SDS011;37248;59.350;18.050;2023-02-13T07:06:44;2.30;;;0.50;;
51184;SDS011;37248;59.350;18.050;2023-02-13T07:09:09;4.90;;;0.60;;
51184;SDS011;37248;59.350;18.050;2023-02-13T07:11:37;6.03;;;1.05;;
51184;SDS011;37248;59.350;18.050;2023-02-13T07:14:03;4.75;;;0.90;;
51184;SDS011;37248;59.350;18.050;2023-02-13T07:16:28;1.73;;;0.47;;
51184;SDS011;37248;59.350;18.050;2023-02-13T07:18:53;3.63;;;0.60;;
51184;SDS011;37248;59.350;18.050;2023-02-13T07:21:18;5.03;;;1.00;;
51184;SDS011;37248;59.350;18.050;2023-02-13T07:23:43;7.43;;;0.70;;
51184;SDS011;37248;59.350;18.050;2023-02-13T07:26:09;5.10;;;0.60;;
51184;SDS011;37248;59.350;18.050;2023-02-13T07:28:35;4.93;;;0.70;;
51184;SDS011;37248;59.350;18.050;2023-02-13T07:31:04;3.60;;;0.80;;
51184;SDS011;37248;59.350;18.050;2023-02-13T07:33:29;7.65;;;0.65;;
51184;SDS011;37248;59.350;18.050;2023-02-13T07:35:55;4.90;;;0.50;;
51184;SDS011;37248;59.350;18.050;2023-02-13T07:38:20;3.67;;;0.60;;
51184;SDS011;37248;59.350;18.050;2023-02-13T07:40:45;14.93;;;1.00;;
51184;SDS011;37248;59.350;18.050;2023-02-13T07:43:11;7.60;;;1.20;;
51184;SDS011;37248;59.350;18.050;2023-02-13T07:45:36;8.37;;;0.90;;
51184;SDS011;37248;59.350;18.050;2023-02-13T07:48:02;4.83;;;0.80;;
51184;SDS011;37248;59.350;18.050;2023-02-13T07:50:27;5.03;;;0.65;;
51184;SDS011;37248;59.350;18.050;2023-02-13T07:52:53;5.30;;;0.70;;
51184;SDS011;37248;59.350;18.050;2023-02-13T07:55:19;3.30;;;0.95;;
51184;SDS011;37248;59.350;18.050;2023-02-13T07:57:44;7.13;;;0.83;;
51184;SDS011;37248;59.350;18.050;2023-02-13T08:00:09;5.10;;;0.63;;
51184;SDS011;37248;59.350;18.050;2023-02-13T08:02:35;5.30;;;0.63;;
51184;SDS011;37248;59.350;18.050;2023-02-13T08:05:00;4.63;;;0.60;;
51184;SDS011;37248;59.350;18.050;2023-02-13T08:07:25;5.83;;;0.67;;
51184;SDS011;37248;59.350;18.050;2023-02-13T08:09:50;1.27;;;0.50;;
51184;SDS011;37248;59.350;18.050;2023-02-13T08:12:34;4.60;;;0.88;;
51184;SDS011;37248;59.350;18.050;2023-02-13T08:15:00;1.50;;;0.52;;
51184;SDS011;37248;59.350;18.050;2023-02-13T08:17:26;2.10;;;0.60;;
51184;SDS011;37248;59.350;18.050;2023-02-13T08:19:51;2.40;;;0.80;;
51184;SDS011;37248;59.350;18.050;2023-02-13T08:22:16;3.30;;;0.80;;
51184;SDS011;37248;59.350;18.050;2023-02-13T08:24:41;1.87;;;0.60;;
51184;SDS011;37248;59.350;18.050;2023-02-13T08:27:10;2.87;;;0.60;;
51184;SDS011;37248;59.350;18.050;2023-02-13T08:29:35;3.25;;;0.88;;
51184;SDS011;37248;59.350;18.050;2023-02-13T08:32:00;1.67;;;0.50;;
51184;SDS011;37248;59.350;18.050;2023-02-13T08:34:25;5.37;;;0.97;;
51184;SDS011;37248;59.350;18.050;2023-02-13T08:36:51;8.30;;;0.80;;
51184;SDS011;37248;59.350;18.050;2023-02-13T08:39:16;5.00;;;0.80;;
51184;SDS011;37248;59.350;18.050;2023-02-13T08:41:41;4.30;;;1.00;;
51184;SDS011;37248;59.350;18.050;2023-02-13T08:44:08;4.80;;;1.10;;
51184;SDS011;37248;59.350;18.050;2023-02-13T08:46:33;3.80;;;0.90;;
51184;SDS011;37248;59.350;18.050;2023-02-13T08:48:58;11.50;;;0.80;;
51184;SDS011;37248;59.350;18.050;2023-02-13T08:51:24;21.97;;;1.63;;
51184;SDS011;37248;59.350;18.050;2023-02-13T08:53:49;39.50;;;2.60;;
51184;SDS011;37248;59.350;18.050;2023-02-13T08:56:14;40.33;;;3.80;;
51184;SDS011;37248;59.350;18.050;2023-02-13T08:58:39;35.90;;;2.60;;
51184;SDS011;37248;59.350;18.050;2023-02-13T09:01:05;26.23;;;2.80;;
51184;SDS011;37248;59.350;18.050;2023-02-13T09:03:31;24.60;;;2.45;;
51184;SDS011;37248;59.350;18.050;2023-02-13T09:06:00;28.23;;;2.35;;
51184;SDS011;37248;59.350;18.050;2023-02-13T09:08:25;32.88;;;2.30;;
51184;SDS011;37248;59.350;18.050;2023-02-13T09:10:54;19.80;;;2.50;;
51184;SDS011;37248;59.350;18.050;2023-02-13T09:13:20;19.38;;;2.45;;
51184;SDS011;37248;59.350;18.050;2023-02-13T09:15:45;11.87;;;2.07;;
51184;SDS011;37248;59.350;18.050;2023-02-13T09:18:10;21.60;;;2.87;;
51184;SDS011;37248;59.350;18.050;2023-02-13T09:20:35;15.80;;;2.60;;
51184;SDS011;37248;59.350;18.050;2023-02-13T09:23:01;18.90;;;1.70;;
51184;SDS011;37248;59.350;18.050;2023-02-13T09:25:26;9.40;;;1.90;;
51184;SDS011;37248;59.350;18.050;2023-02-13T09:27:51;9.07;;;1.70;;
51184;SDS011;37248;59.350;18.050;2023-02-13T09:30:17;11.90;;;2.00;;
51184;SDS011;37248;59.350;18.050;2023-02-13T09:32:47;12.10;;;1.75;;
51184;SDS011;37248;59.350;18.050;2023-02-13T09:35:13;16.50;;;2.20;;
51184;SDS011;37248;59.350;18.050;2023-02-13T09:37:39;13.60;;;2.05;;
51184;SDS011;37248;59.350;18.050;2023-02-13T09:40:05;10.37;;;2.07;;
51184;SDS011;37248;59.350;18.050;2023-02-13T09:42:31;13.02;;;2.35;;
51184;SDS011;37248;59.350;18.050;2023-02-13T09:45:01;11.70;;;2.53;;
51184;SDS011;37248;59.350;18.050;2023-02-13T09:47:30;9.75;;;2.33;;
51184;SDS011;37248;59.350;18.050;2023-02-13T09:50:02;7.10;;;2.33;;
51184;SDS011;37248;59.350;18.050;2023-02-13T09:52:31;12.27;;;2.50;;
51184;SDS011;37248;59.350;18.050;2023-02-13T09:54:57;6.30;;;1.90;;
51184;SDS011;37248;59.350;18.050;2023-02-13T09:57:30;6.67;;;2.30;;
51184;SDS011;37248;59.350;18.050;2023-02-13T10:02:57;7.40;;;2.20;;
51184;SDS011;37248;59.350;18.050;2023-02-13T10:13:21;12.60;;;2.80;;
51184;SDS011;37248;59.350;18.050;2023-02-13T10:16:00;7.30;;;1.92;;
51184;SDS011;37248;59.350;18.050;2023-02-13T10:18:39;9.50;;;2.10;;
51184;SDS011;37248;59.350;18.050;2023-02-13T10:21:06;7.60;;;2.17;;
51184;SDS011;37248;59.350;18.050;2023-02-13T10:26:01;5.30;;;1.83;;
51184;SDS011;37248;59.350;18.050;2023-02-13T10:28:35;6.50;;;1.83;;
51184;SDS011;37248;59.350;18.050;2023-02-13T10:31:21;6.20;;;1.90;;
51184;SDS011;37248;59.350;18.050;2023-02-13T10:36:20;5.50;;;1.80;;
51184;SDS011;37248;59.350;18.050;2023-02-13T10:39:11;5.60;;;1.35;;
51184;SDS011;37248;59.350;18.050;2023-02-13T10:41:54;4.65;;;1.70;;
51184;SDS011;37248;59.350;18.050;2023-02-13T10:47:29;6.10;;;1.60;;
51184;SDS011;37248;59.350;18.050;2023-02-13T10:52:32;8.07;;;2.20;;
51184;SDS011;37248;59.350;18.050;2023-02-13T10:55:13;7.50;;;1.50;;
51184;SDS011;37248;59.350;18.050;2023-02-13T11:00:34;9.53;;;2.10;;
51184;SDS011;37248;59.350;18.050;2023-02-13T11:02:56;5.50;;;2.17;;
51184;SDS011;37248;59.350;18.050;2023-02-13T11:05:23;13.43;;;3.50;;
51184;SDS011;37248;59.350;18.050;2023-02-13T11:07:48;12.33;;;3.80;;
51184;SDS011;37248;59.350;18.050;2023-02-13T11:12:39;10.98;;;4.00;;
51184;SDS011;37248;59.350;18.050;2023-02-13T11:15:05;13.23;;;5.53;;
51184;SDS011;37248;59.350;18.050;2023-02-13T11:17:33;12.55;;;4.70;;
51184;SDS011;37248;59.350;18.050;2023-02-13T11:20:00;12.32;;;4.80;;
51184;SDS011;37248;59.350;18.050;2023-02-13T11:24:56;10.97;;;4.33;;
51184;SDS011;37248;59.350;18.050;2023-02-13T11:27:26;15.40;;;5.57;;
51184;SDS011;37248;59.350;18.050;2023-02-13T11:29:57;12.15;;;5.10;;
51184;SDS011;37248;59.350;18.050;2023-02-13T11:32:23;17.45;;;5.07;;
51184;SDS011;37248;59.350;18.050;2023-02-13T11:34:49;13.18;;;4.68;;
51184;SDS011;37248;59.350;18.050;2023-02-13T11:37:22;18.42;;;5.93;;
51184;SDS011;37248;59.350;18.050;2023-02-13T11:39:49;16.38;;;5.50;;
51184;SDS011;37248;59.350;18.050;2023-02-13T11:42:20;14.57;;;5.05;;
51184;SDS011;37248;59.350;18.050;2023-02-13T11:44:49;17.02;;;5.50;;
51184;SDS011;37248;59.350;18.050;2023-02-13T11:47:15;16.92;;;5.03;;
51184;SDS011;37248;59.350;18.050;2023-02-13T11:49:44;15.40;;;5.00;;
51184;SDS011;37248;59.350;18.050;2023-02-13T11:52:21;14.65;;;5.32;;
51184;SDS011;37248;59.350;18.050;2023-02-13T11:54:47;15.25;;;5.13;;
51184;SDS011;37248;59.350;18.050;2023-02-13T11:57:20;13.90;;;4.28;;
51184;SDS011;37248;59.350;18.050;2023-02-13T11:59:46;13.82;;;5.22;;
51184;SDS011;37248;59.350;18.050;2023-02-13T12:04:37;12.13;;;4.53;;
51184;SDS011;37248;59.350;18.050;2023-02-13T12:07:03;20.53;;;4.43;;
51184;SDS011;37248;59.350;18.050;2023-02-13T12:09:35;11.85;;;4.60;;
51184;SDS011;37248;59.350;18.050;2023-02-13T12:12:02;12.93;;;4.43;;
51184;SDS011;37248;59.350;18.050;2023-02-13T12:14:29;11.15;;;4.03;;
51184;SDS011;37248;59.350;18.050;2023-02-13T12:19:34;10.57;;;3.75;;
51184;SDS011;37248;59.350;18.050;2023-02-13T12:25:33;18.40;;;4.35;;
51184;SDS011;37248;59.350;18.050;2023-02-13T12:27:36;15.20;;;3.97;;
51184;SDS011;37248;59.350;18.050;2023-02-13T13:28:21;10.57;;;2.70;;
51184;SDS011;37248;59.350;18.050;2023-02-13T13:30:46;8.75;;;2.83;;
51184;SDS011;37248;59.350;18.050;2023-02-13T13:33:14;7.88;;;2.22;;
51184;SDS011;37248;59.350;18.050;2023-02-13T13:35:41;8.23;;;2.65;;
51184;SDS011;37248;59.350;18.050;2023-02-13T13:38:20;7.60;;;2.47;;
51184;SDS011;37248;59.350;18.050;2023-02-13T13:40:50;8.50;;;2.63;;
51184;SDS011;37248;59.350;18.050;2023-02-13T13:46:02;6.88;;;2.25;;
51184;SDS011;37248;59.350;18.050;2023-02-13T13:51:04;6.13;;;2.47;;
51184;SDS011;37248;59.350;18.050;2023-02-13T13:53:30;7.00;;;2.53;;
51184;SDS011;37248;59.350;18.050;2023-02-13T14:00:45;6.63;;;2.33;;
51184;SDS011;37248;59.350;18.050;2023-02-13T14:03:34;4.90;;;2.15;;
51184;SDS011;37248;59.350;18.050;2023-02-13T14:06:02;6.85;;;2.53;;
51184;SDS011;37248;59.350;18.050;2023-02-13T14:13:35;6.57;;;2.08;;
51184;SDS011;37248;59.350;18.050;2023-02-13T14:16:00;5.40;;;2.10;;
51184;SDS011;37248;59.350;18.050;2023-02-13T14:18:26;3.95;;;1.80;;
51184;SDS011;37248;59.350;18.050;2023-02-13T14:20:53;5.57;;;2.10;;
51184;SDS011;37248;59.350;18.050;2023-02-13T14:23:26;3.90;;;1.70;;
51184;SDS011;37248;59.350;18.050;2023-02-13T14:26:08;6.00;;;2.00;;
51184;SDS011;37248;59.350;18.050;2023-02-13T14:28:34;6.60;;;2.10;;
51184;SDS011;37248;59.350;18.050;2023-02-13T14:31:06;3.87;;;1.80;;
51184;SDS011;37248;59.350;18.050;2023-02-13T14:33:33;5.03;;;2.00;;
51184;SDS011;37248;59.350;18.050;2023-02-13T14:36:08;5.97;;;1.80;;
51184;SDS011;37248;59.350;18.050;2023-02-13T14:38:41;6.53;;;2.00;;
51184;SDS011;37248;59.350;18.050;2023-02-13T14:41:22;4.57;;;1.80;;
51184;SDS011;37248;59.350;18.050;2023-02-13T14:43:51;4.13;;;1.52;;
51184;SDS011;37248;59.350;18.050;2023-02-13T14:46:25;4.63;;;1.80;;
51184;SDS011;37248;59.350;18.050;2023-02-13T14:48:57;5.43;;;1.90;;
51184;SDS011;37248;59.350;18.050;2023-02-13T14:51:40;5.25;;;1.70;;
51184;SDS011;37248;59.350;18.050;2023-02-13T14:56:40;4.88;;;1.60;;
51184;SDS011;37248;59.350;18.050;2023-02-13T14:59:24;8.20;;;1.75;;
51184;SDS011;37248;59.350;18.050;2023-02-13T15:01:58;5.78;;;1.45;;
51184;SDS011;37248;59.350;18.050;2023-02-13T15:06:49;3.63;;;1.47;;
51184;SDS011;37248;59.350;18.050;2023-02-13T15:09:18;3.78;;;1.50;;
51184;SDS011;37248;59.350;18.050;2023-02-13T15:11:45;6.22;;;1.48;;
51184;SDS011;37248;59.350;18.050;2023-02-13T15:14:21;4.05;;;1.60;;
51184;SDS011;37248;59.350;18.050;2023-02-13T15:16:49;4.35;;;1.45;;
51184;SDS011;37248;59.350;18.050;2023-02-13T15:19:16;5.85;;;1.60;;
51184;SDS011;37248;59.350;18.050;2023-02-13T15:21:52;7.90;;;1.55;;
51184;SDS011;37248;59.350;18.050;2023-02-13T15:24:18;21.02;;;1.75;;
51184;SDS011;37248;59.350;18.050;2023-02-13T15:26:48;8.18;;;1.63;;
51184;SDS011;37248;59.350;18.050;2023-02-13T15:29:15;5.78;;;1.55;;
51184;SDS011;37248;59.350;18.050;2023-02-13T15:31:40;8.35;;;1.45;;
51184;SDS011;37248;59.350;18.050;2023-02-13T15:36:49;9.57;;;1.58;;
51184;SDS011;37248;59.350;18.050;2023-02-13T15:39:16;7.17;;;1.20;;
51184;SDS011;37248;59.350;18.050;2023-02-13T15:41:44;6.78;;;1.80;;
51184;SDS011;37248;59.350;18.050;2023-02-13T15:44:24;5.33;;;1.23;;
51184;SDS011;37248;59.350;18.050;2023-02-13T15:46:50;6.85;;;1.63;;
51184;SDS011;37248;59.350;18.050;2023-02-13T15:49:17;5.13;;;1.42;;
51184;SDS011;37248;59.350;18.050;2023-02-13T15:51:43;6.00;;;1.30;;
51184;SDS011;37248;59.350;18.050;2023-02-13T15:54:25;6.37;;;1.30;;
51184;SDS011;37248;59.350;18.050;2023-02-13T15:56:51;4.88;;;1.33;;
51184;SDS011;37248;59.350;18.050;2023-02-13T15:59:17;5.40;;;1.40;;
51184;SDS011;37248;59.350;18.050;2023-02-13T16:01:43;3.58;;;1.25;;
51184;SDS011;37248;59.350;18.050;2023-02-13T16:04:09;3.55;;;1.20;;
51184;SDS011;37248;59.350;18.050;2023-02-13T16:06:36;4.85;;;1.33;;
51184;SDS011;37248;59.350;18.050;2023-02-13T16:09:02;3.20;;;1.13;;
51184;SDS011;37248;59.350;18.050;2023-02-13T16:11:37;5.05;;;1.17;;
51184;SDS011;37248;59.350;18.050;2023-02-13T16:16:45;4.53;;;1.10;;
51184;SDS011;37248;59.350;18.050;2023-02-13T16:19:55;5.38;;;1.10;;
51184;SDS011;37248;59.350;18.050;2023-02-13T16:22:42;3.00;;;1.10;;
51184;SDS011;37248;59.350;18.050;2023-02-13T16:24:49;2.38;;;1.02;;
51184;SDS011;37248;59.350;18.050;2023-02-13T16:27:15;4.72;;;1.17;;
51184;SDS011;37248;59.350;18.050;2023-02-13T16:30:00;4.57;;;1.35;;
51184;SDS011;37248;59.350;18.050;2023-02-13T16:32:27;4.00;;;0.98;;
51184;SDS011;37248;59.350;18.050;2023-02-13T16:34:53;3.83;;;1.02;;
51184;SDS011;37248;59.350;18.050;2023-02-13T16:37:32;3.60;;;1.10;;
51184;SDS011;37248;59.350;18.050;2023-02-13T16:40:17;2.20;;;0.93;;
51184;SDS011;37248;59.350;18.050;2023-02-13T16:42:42;8.77;;;1.33;;
51184;SDS011;37248;59.350;18.050;2023-02-13T16:45:20;8.97;;;1.40;;
51184;SDS011;37248;59.350;18.050;2023-02-13T16:47:46;7.40;;;1.60;;
51184;SDS011;37248;59.350;18.050;2023-02-13T16:50:15;6.70;;;1.17;;
51184;SDS011;37248;59.350;18.050;2023-02-13T16:52:40;12.97;;;1.60;;
51184;SDS011;37248;59.350;18.050;2023-02-13T16:55:12;8.13;;;1.50;;
51184;SDS011;37248;59.350;18.050;2023-02-13T16:57:38;14.27;;;1.65;;
51184;SDS011;37248;59.350;18.050;2023-02-13T17:02:33;9.98;;;1.67;;
51184;SDS011;37248;59.350;18.050;2023-02-13T17:07:30;18.00;;;2.50;;
51184;SDS011;37248;59.350;18.050;2023-02-13T17:10:02;20.33;;;2.55;;
51184;SDS011;37248;59.350;18.050;2023-02-13T17:12:28;20.58;;;2.60;;
51184;SDS011;37248;59.350;18.050;2023-02-13T17:14:55;15.02;;;2.10;;
51184;SDS011;37248;59.350;18.050;2023-02-13T17:17:21;12.60;;;1.88;;
51184;SDS011;37248;59.350;18.050;2023-02-13T17:19:46;13.73;;;2.10;;
51184;SDS011;37248;59.350;18.050;2023-02-13T17:22:16;12.88;;;2.17;;
51184;SDS011;37248;59.350;18.050;2023-02-13T17:24:41;16.97;;;2.47;;
51184;SDS011;37248;59.350;18.050;2023-02-13T17:27:07;13.90;;;2.37;;
51184;SDS011;37248;59.350;18.050;2023-02-13T17:29:33;15.10;;;2.20;;